Time;durP1;ratioP1;P1;durP2;ratioP2;P2;SDS_P1;SDS_P2;PMS_P1;PMS_P2;Temp;Humidity;BMP_temperature;BMP_pressure;BME280_temperature;BME280_humidity;BME280_pressure;Samples;Min_cycle;Max_cycle;Signal;HPM_P1;HPM_P2
2023/10/11 14:45:16;;;;;;;12.35;4.93;;;;;;;;;;5020956;28;20053;-80
2023/10/11 14:47:48;;;;;;;11.10;5.05;;;;;;;;;;5008398;28;20058;-79
2023/10/11 14:50:23;;;;;;;9.10;4.85;;;;;;;;;;5008508;28;20046;-79
2023/10/11 14:52:53;;;;;;;15.60;5.38;;;;;;;;;;5008622;28;20062;-79
2023/10/11 14:55:24;;;;;;;8.40;4.63;;;;;;;;;;5008029;28;20411;-80
2023/10/11 14:57:55;;;;;;;9.95;4.93;;;;;;;;;;5007791;28;20054;-79
2023/10/11 15:00:26;;;;;;;9.27;4.90;;;;;;;;;;4991962;28;20050;-81
2023/10/11 15:03:04;;;;;;;10.65;5.13;;;;;;;;;;5007016;28;20523;-80
2023/10/11 15:05:35;;;;;;;10.43;4.75;;;;;;;;;;5008736;28;20488;-82
2023/10/11 15:08:06;;;;;;;13.43;5.28;;;;;;;;;;4994828;28;20050;-80
2023/10/11 15:10:36;;;;;;;7.72;4.93;;;;;;;;;;5012210;28;20050;-81
2023/10/11 15:13:06;;;;;;;10.75;5.50;;;;;;;;;;5010233;28;20057;-79
2023/10/11 15:15:36;;;;;;;14.50;5.47;;;;;;;;;;4992792;28;20483;-82
2023/10/11 15:18:07;;;;;;;9.98;6.22;;;;;;;;;;5011031;28;20517;-79
2023/10/11 15:20:38;;;;;;;11.35;5.60;;;;;;;;;;5011612;28;20065;-80
2023/10/11 15:23:08;;;;;;;10.38;5.95;;;;;;;;;;5011822;28;20049;-79
2023/10/11 15:25:40;;;;;;;10.60;6.13;;;;;;;;;;5011402;28;20058;-80
2023/10/11 15:28:11;;;;;;;10.32;5.90;;;;;;;;;;5011807;28;20504;-80
2023/10/11 15:30:42;;;;;;;10.15;5.82;;;;;;;;;;5011570;28;20057;-79
2023/10/11 15:33:13;;;;;;;10.00;5.88;;;;;;;;;;5011366;28;20049;-80
2023/10/11 15:35:57;;;;;;;10.88;6.53;;;;;;;;;;5011467;28;20054;-80
2023/10/11 15:38:28;;;;;;;10.35;5.50;;;;;;;;;;5012055;28;20057;-80
2023/10/11 15:40:58;;;;;;;11.55;5.85;;;;;;;;;;5013450;28;20049;-80
2023/10/11 15:43:34;;;;;;;9.45;5.72;;;;;;;;;;5013017;28;20388;-80
2023/10/11 15:46:07;;;;;;;11.20;5.78;;;;;;;;;;5012954;28;20038;-83
2023/10/11 15:48:38;;;;;;;11.18;5.88;;;;;;;;;;5012395;28;20046;-80
2023/10/11 15:51:10;;;;;;;10.70;5.93;;;;;;;;;;5012720;28;20034;-80
2023/10/11 15:53:42;;;;;;;7.78;4.90;;;;;;;;;;5012348;28;20061;-83
2023/10/11 15:56:14;;;;;;;9.38;5.78;;;;;;;;;;5010857;28;20068;-81
2023/10/11 15:58:46;;;;;;;11.13;5.70;;;;;;;;;;5011702;28;20057;-82
2023/10/11 16:01:17;;;;;;;8.90;5.22;;;;;;;;;;5013230;28;20384;-82
2023/10/11 16:03:55;;;;;;;10.45;5.55;;;;;;;;;;5010950;28;20049;-82
2023/10/11 16:06:26;;;;;;;12.45;5.68;;;;;;;;;;5016609;28;20041;-80
2023/10/11 16:08:56;;;;;;;12.13;5.95;;;;;;;;;;5015549;28;20053;-82
2023/10/11 16:11:30;;;;;;;12.35;5.90;;;;;;;;;;5032185;28;20037;-80
2023/10/11 16:14:00;;;;;;;11.10;5.63;;;;;;;;;;5032408;28;20041;-80
2023/10/11 16:16:34;;;;;;;9.25;5.03;;;;;;;;;;5031817;28;20053;-78
2023/10/11 16:19:05;;;;;;;9.60;6.15;;;;;;;;;;5031454;28;20042;-78
2023/10/11 16:21:36;;;;;;;10.77;6.43;;;;;;;;;;5014882;28;20041;-83
2023/10/11 16:24:07;;;;;;;10.18;5.53;;;;;;;;;;5032128;28;20054;-78
2023/10/11 16:26:38;;;;;;;9.60;5.45;;;;;;;;;;5031473;28;20057;-79
2023/10/11 16:29:08;;;;;;;9.30;5.93;;;;;;;;;;5032150;28;20053;-79
2023/10/11 16:31:39;;;;;;;12.93;6.38;;;;;;;;;;5031261;28;20042;-80
2023/10/11 16:34:10;;;;;;;13.98;5.78;;;;;;;;;;5031709;28;20045;-81
2023/10/11 16:36:41;;;;;;;12.10;5.30;;;;;;;;;;5014609;28;20048;-80
2023/10/11 16:39:16;;;;;;;10.10;5.60;;;;;;;;;;5032200;28;20053;-81
2023/10/11 16:42:05;;;;;;;10.10;5.30;;;;;;;;;;5032103;28;20045;-81
2023/10/11 16:44:38;;;;;;;13.90;5.60;;;;;;;;;;5031700;28;20879;-80
2023/10/11 16:47:08;;;;;;;10.88;5.82;;;;;;;;;;5015555;28;20410;-81
2023/10/11 16:49:45;;;;;;;7.95;5.22;;;;;;;;;;5031552;28;20064;-82
2023/10/11 16:52:17;;;;;;;10.18;6.68;;;;;;;;;;5032054;28;20383;-80
2023/10/11 16:54:47;;;;;;;10.30;5.57;;;;;;;;;;5014559;28;20528;-81
2023/10/11 16:57:19;;;;;;;8.18;3.40;;;;;;;;;;5031781;28;20412;-81
2023/10/11 16:59:51;;;;;;;7.00;2.75;;;;;;;;;;5031639;28;20045;-78
2023/10/11 17:02:22;;;;;;;;;;;;;;;;;;5025596;28;20042;-81
2023/10/11 17:04:52;;;;;;;6.13;3.38;;;;;;;;;;5012264;28;19921;-81
2023/10/11 17:07:25;;;;;;;7.15;2.53;;;;;;;;;;5012076;28;20396;-80
2023/10/11 17:09:57;;;;;;;5.70;2.33;;;;;;;;;;5011689;28;20046;-80
2023/10/11 17:12:27;;;;;;;8.77;2.60;;;;;;;;;;5011414;28;20066;-80
2023/10/11 17:14:57;;;;;;;4.57;1.92;;;;;;;;;;5011180;28;20482;-79
2023/10/11 17:17:27;;;;;;;5.30;2.10;;;;;;;;;;5011350;28;20057;-80
2023/10/11 17:19:57;;;;;;;5.25;2.72;;;;;;;;;;5011696;28;20052;-81
2023/10/11 17:22:27;;;;;;;3.50;2.05;;;;;;;;;;5016331;28;20041;-80
2023/10/11 17:24:59;;;;;;;4.88;2.30;;;;;;;;;;5012544;28;20061;-80
2023/10/11 17:27:32;;;;;;;6.75;3.13;;;;;;;;;;5030875;28;20049;-79
2023/10/11 17:30:05;;;;;;;4.45;2.35;;;;;;;;;;5027328;28;20049;-80
2023/10/11 17:32:35;;;;;;;6.68;1.40;;;;;;;;;;5011837;28;20407;-80
2023/10/11 17:35:06;;;;;;;7.25;2.20;;;;;;;;;;5029293;28;20048;-79
2023/10/11 17:37:41;;;;;;;7.93;3.08;;;;;;;;;;5030715;28;20046;-82
2023/10/11 17:40:11;;;;;;;5.25;2.15;;;;;;;;;;5031699;28;20038;-77
2023/10/11 17:42:42;;;;;;;5.95;1.73;;;;;;;;;;5030875;28;20049;-78
2023/10/11 17:45:17;;;;;;;4.93;3.25;;;;;;;;;;5030866;28;20391;-80
2023/10/11 17:47:47;;;;;;;5.38;2.20;;;;;;;;;;5031403;28;20044;-79
2023/10/11 17:50:22;;;;;;;3.67;1.80;;;;;;;;;;5030063;28;20057;-79
2023/10/11 17:52:56;;;;;;;5.20;2.13;;;;;;;;;;5021165;28;20046;-80
2023/10/11 17:55:26;;;;;;;6.40;2.08;;;;;;;;;;5030668;28;20052;-81
2023/10/11 17:57:57;;;;;;;4.20;1.98;;;;;;;;;;5012124;28;20500;-80
2023/10/11 18:00:28;;;;;;;4.28;2.05;;;;;;;;;;5030353;28;20064;-80
2023/10/11 18:02:58;;;;;;;4.03;1.70;;;;;;;;;;5030194;28;20061;-80
2023/10/11 18:05:28;;;;;;;5.40;2.13;;;;;;;;;;5030699;28;20060;-80
2023/10/11 18:07:58;;;;;;;6.45;2.22;;;;;;;;;;5031196;28;20052;-81
2023/10/11 18:10:29;;;;;;;3.75;2.05;;;;;;;;;;5030257;28;20053;-82
2023/10/11 18:12:59;;;;;;;8.75;2.28;;;;;;;;;;5014398;28;20072;-83
2023/10/11 18:15:32;;;;;;;5.72;1.27;;;;;;;;;;5011695;28;20057;-84
2023/10/11 18:18:04;;;;;;;3.58;1.83;;;;;;;;;;5030305;28;20050;-82
2023/10/11 18:20:36;;;;;;;5.63;2.05;;;;;;;;;;5030255;28;20042;-87
2023/10/11 18:23:08;;;;;;;9.52;1.73;;;;;;;;;;5013183;28;20495;-80
2023/10/11 18:25:39;;;;;;;7.53;2.63;;;;;;;;;;5029971;28;20411;-80
2023/10/11 18:28:09;;;;;;;5.68;1.80;;;;;;;;;;5029926;28;20403;-81
2023/10/11 18:30:39;;;;;;;3.90;1.83;;;;;;;;;;5030107;28;20411;-84
2023/10/11 18:33:10;;;;;;;6.93;2.33;;;;;;;;;;5029890;28;20056;-85
2023/10/11 18:35:41;;;;;;;2.78;1.42;;;;;;;;;;5029500;28;20056;-84
2023/10/11 18:38:13;;;;;;;;;;;;;;;;;;5012252;28;20056;-83
2023/10/11 18:40:45;;;;;;;6.50;2.05;;;;;;;;;;5029909;28;19928;-84
2023/10/11 18:43:15;;;;;;;2.20;1.02;;;;;;;;;;5029202;28;20049;-84
2023/10/11 18:45:46;;;;;;;5.03;1.40;;;;;;;;;;5029757;28;20056;-83
2023/10/11 18:48:17;;;;;;;4.13;1.55;;;;;;;;;;5011446;28;20052;-84
2023/10/11 18:50:47;;;;;;;5.40;2.08;;;;;;;;;;5030165;28;20056;-85
2023/10/11 18:53:18;;;;;;;5.00;1.50;;;;;;;;;;5030157;28;20420;-81
2023/10/11 18:55:49;;;;;;;3.92;1.58;;;;;;;;;;5030441;28;20060;-84
2023/10/11 18:58:19;;;;;;;3.42;1.42;;;;;;;;;;5032224;28;20053;-81
2023/10/11 19:00:49;;;;;;;3.80;1.17;;;;;;;;;;5054634;27;20059;-85
2023/10/11 19:03:19;;;;;;;3.38;1.33;;;;;;;;;;5054210;27;20029;-82
2023/10/11 19:05:50;;;;;;;2.53;1.20;;;;;;;;;;5054363;27;20018;-83
2023/10/11 19:08:24;;;;;;;5.70;1.95;;;;;;;;;;5038019;27;20030;-81
2023/10/11 19:10:54;;;;;;;5.28;1.70;;;;;;;;;;5054459;27;20029;-83
2023/10/11 19:13:27;;;;;;;3.63;1.50;;;;;;;;;;5054152;28;20022;-82
2023/10/11 19:15:57;;;;;;;4.20;1.58;;;;;;;;;;5052674;27;20028;-85
2023/10/11 19:18:41;;;;;;;3.17;1.30;;;;;;;;;;5034417;28;20042;-82
2023/10/11 19:21:12;;;;;;;3.95;1.70;;;;;;;;;;5028664;28;20038;-81
2023/10/11 19:23:41;;;;;;;4.00;1.70;;;;;;;;;;5022446;28;20056;-86
2023/10/11 19:26:13;;;;;;;6.75;2.08;;;;;;;;;;5014349;28;20419;-87
2023/10/11 19:28:43;;;;;;;4.97;1.63;;;;;;;;;;5026364;28;20041;-87
2023/10/11 19:31:15;;;;;;;4.22;1.65;;;;;;;;;;5014127;28;20057;-88
2023/10/11 19:33:46;;;;;;;5.80;1.63;;;;;;;;;;5012390;28;20503;-87
2023/10/11 19:36:16;;;;;;;5.00;1.95;;;;;;;;;;5011104;28;20049;-86
2023/10/11 19:38:49;;;;;;;4.15;1.83;;;;;;;;;;5031799;28;20496;-85
2023/10/11 19:41:20;;;;;;;4.70;1.58;;;;;;;;;;5024377;28;20058;-88
2023/10/11 19:43:52;;;;;;;4.80;1.70;;;;;;;;;;4989444;28;20063;-89
2023/10/11 19:46:22;;;;;;;5.55;2.13;;;;;;;;;;4990793;28;20508;-86
2023/10/11 19:48:53;;;;;;;5.35;1.90;;;;;;;;;;4989135;28;20053;-85
2023/10/11 19:51:24;;;;;;;5.22;1.77;;;;;;;;;;4970644;28;20050;-87
2023/10/11 19:53:54;;;;;;;5.53;1.73;;;;;;;;;;4974122;28;20054;-88
2023/10/11 19:56:24;;;;;;;5.22;1.55;;;;;;;;;;4973024;28;20416;-87
2023/10/11 19:58:57;;;;;;;3.95;1.60;;;;;;;;;;4973552;28;20047;-88
2023/10/11 20:01:28;;;;;;;9.18;1.95;;;;;;;;;;4974153;28;20058;-88
2023/10/11 20:04:00;;;;;;;6.82;1.80;;;;;;;;;;4973904;28;20051;-89
2023/10/11 20:06:32;;;;;;;4.32;1.80;;;;;;;;;;4972894;28;20055;-88
2023/10/11 20:09:02;;;;;;;7.97;2.13;;;;;;;;;;4973773;28;20047;-89
2023/10/11 20:11:35;;;;;;;13.68;2.25;;;;;;;;;;4973589;28;20053;-89
2023/10/11 20:14:06;;;;;;;4.72;1.58;;;;;;;;;;4977309;28;20059;-90
2023/10/11 20:16:36;;;;;;;4.25;1.30;;;;;;;;;;4975963;28;20055;-89
2023/10/11 20:19:06;;;;;;;4.90;1.77;;;;;;;;;;4955826;28;20059;-91
2023/10/11 20:21:36;;;;;;;4.70;1.83;;;;;;;;;;4973504;28;20058;-90
2023/10/11 20:24:07;;;;;;;7.90;2.03;;;;;;;;;;4956786;28;20059;-82
2023/10/11 20:26:37;;;;;;;5.00;1.80;;;;;;;;;;4973696;28;20051;-85
2023/10/11 20:29:07;;;;;;;6.63;2.03;;;;;;;;;;4972522;28;20046;-84
2023/10/11 20:31:37;;;;;;;3.55;1.63;;;;;;;;;;4973739;28;20051;-85
2023/10/11 20:34:08;;;;;;;5.78;1.92;;;;;;;;;;4972907;28;20413;-85
2023/10/11 20:36:40;;;;;;;4.53;2.17;;;;;;;;;;4973014;28;20038;-87
2023/10/11 20:39:16;;;;;;;5.43;1.90;;;;;;;;;;4972937;28;20473;-84
2023/10/11 20:41:55;;;;;;;6.43;2.70;;;;;;;;;;4973304;28;20046;-84
2023/10/11 20:44:26;;;;;;;5.60;2.30;;;;;;;;;;4990960;28;20229;-88
2023/10/11 20:46:56;;;;;;;5.65;2.38;;;;;;;;;;5010368;28;20594;-85
2023/10/11 20:49:26;;;;;;;4.72;2.08;;;;;;;;;;5008889;28;20046;-85
2023/10/11 20:51:57;;;;;;;5.03;2.47;;;;;;;;;;5011337;28;20057;-84
2023/10/11 20:54:32;;;;;;;10.32;2.20;;;;;;;;;;5010557;28;20491;-84
2023/10/11 20:57:04;;;;;;;5.10;2.28;;;;;;;;;;5010735;28;20075;-84
2023/10/11 20:59:38;;;;;;;4.78;1.77;;;;;;;;;;5010009;28;20053;-84
2023/10/11 21:02:08;;;;;;;7.35;2.22;;;;;;;;;;5012335;28;20045;-85
2023/10/11 21:04:39;;;;;;;6.20;2.20;;;;;;;;;;5011890;28;20045;-85
2023/10/11 21:07:09;;;;;;;7.25;2.53;;;;;;;;;;5012155;28;20065;-85
2023/10/11 21:09:40;;;;;;;4.93;2.50;;;;;;;;;;5012194;28;20057;-84
2023/10/11 21:12:12;;;;;;;12.20;3.40;;;;;;;;;;5010120;28;20073;-85
2023/10/11 21:14:43;;;;;;;8.40;2.95;;;;;;;;;;5010677;28;20053;-83
2023/10/11 21:17:13;;;;;;;9.88;4.70;;;;;;;;;;5009442;28;20419;-84
2023/10/11 21:19:44;;;;;;;9.90;5.15;;;;;;;;;;4993151;28;20052;-86
2023/10/11 21:22:13;;;;;;;7.28;3.38;;;;;;;;;;5066617;28;20050;-83
2023/10/11 21:24:44;;;;;;;5.65;2.35;;;;;;;;;;5070788;28;20073;-84
2023/10/11 21:27:17;;;;;;;7.60;3.42;;;;;;;;;;5024885;28;20062;-85
2023/10/11 21:29:47;;;;;;;8.65;3.55;;;;;;;;;;5012749;28;20533;-87
2023/10/11 21:32:17;;;;;;;8.27;3.53;;;;;;;;;;5031972;28;20061;-85
2023/10/11 21:34:47;;;;;;;5.38;2.28;;;;;;;;;;5029735;28;20037;-87
2023/10/11 21:37:19;;;;;;;6.20;2.15;;;;;;;;;;5014044;28;20080;-88
2023/10/11 21:39:51;;;;;;;6.07;1.98;;;;;;;;;;5032715;28;20052;-86
2023/10/11 21:42:22;;;;;;;6.47;2.20;;;;;;;;;;5030800;28;20050;-84
2023/10/11 21:44:51;;;;;;;6.18;1.80;;;;;;;;;;5032123;28;20053;-86
2023/10/11 21:47:22;;;;;;;6.72;1.35;;;;;;;;;;5025171;28;20065;-85
2023/10/11 21:49:55;;;;;;;3.90;0.88;;;;;;;;;;5013230;28;20534;-86
2023/10/11 21:52:26;;;;;;;;;;;;;;;;;;5014980;28;21175;-86
2023/10/11 21:54:59;;;;;;;5.90;1.17;;;;;;;;;;5017179;28;19929;-83
2023/10/11 21:57:29;;;;;;;6.82;1.20;;;;;;;;;;5010854;28;20511;-86
2023/10/11 22:00:11;;;;;;;7.05;2.08;;;;;;;;;;5073244;28;20053;-87
2023/10/11 22:02:45;;;;;;;3.85;1.08;;;;;;;;;;5078286;28;20053;-88
2023/10/11 22:05:18;;;;;;;1.90;0.90;;;;;;;;;;5034339;28;20061;-88
2023/10/11 22:07:48;;;;;;;3.92;1.88;;;;;;;;;;4994528;28;20053;-86
2023/10/11 22:10:20;;;;;;;3.83;1.17;;;;;;;;;;4995822;28;20060;-88
2023/10/11 22:12:52;;;;;;;2.50;0.90;;;;;;;;;;4995924;28;20053;-88
2023/10/11 22:15:23;;;;;;;6.03;1.02;;;;;;;;;;4979128;28;20061;-88
2023/10/11 22:17:57;;;;;;;8.00;1.83;;;;;;;;;;4980308;28;20445;-90
2023/10/11 22:20:28;;;;;;;5.00;1.98;;;;;;;;;;5010375;28;20407;-89
2023/10/11 22:22:58;;;;;;;1.42;0.60;;;;;;;;;;4996773;28;20057;-88
2023/10/11 22:25:29;;;;;;;5.47;1.00;;;;;;;;;;4995378;28;20045;-88
2023/10/11 22:27:58;;;;;;;3.58;0.73;;;;;;;;;;5013674;28;20062;-88
2023/10/11 22:30:29;;;;;;;2.85;1.13;;;;;;;;;;4992416;28;20054;-87
2023/10/11 22:33:00;;;;;;;2.92;1.23;;;;;;;;;;5008843;28;20062;-88
2023/10/11 22:35:30;;;;;;;4.60;1.40;;;;;;;;;;4992988;28;20419;-88
2023/10/11 22:38:00;;;;;;;3.42;1.27;;;;;;;;;;4992199;28;20046;-86
2023/10/11 22:40:31;;;;;;;5.35;1.55;;;;;;;;;;5011406;28;20057;-88
2023/10/11 22:43:02;;;;;;;3.97;1.75;;;;;;;;;;5012696;28;20053;-88
2023/10/11 22:45:50;;;;;;;2.63;1.38;;;;;;;;;;5014107;28;20368;-86
2023/10/11 22:48:21;;;;;;;4.28;1.30;;;;;;;;;;5029676;28;20464;-86
2023/10/11 22:50:51;;;;;;;4.90;1.50;;;;;;;;;;5010810;28;20057;-86
2023/10/11 22:53:25;;;;;;;44.60;7.22;;;;;;;;;;5010607;28;20061;-86
2023/10/11 22:55:55;;;;;;;6.93;1.92;;;;;;;;;;5029313;28;20061;-90
2023/10/11 22:58:29;;;;;;;3.10;1.10;;;;;;;;;;5028840;28;20049;-89
2023/10/11 23:01:00;;;;;;;3.17;1.30;;;;;;;;;;5007715;28;20057;-87
2023/10/11 23:03:30;;;;;;;4.03;1.27;;;;;;;;;;5007207;28;20053;-87
2023/10/11 23:09:55;;;;;;;3.95;1.00;;;;;;;;;;5009990;28;20064;-87
2023/10/11 23:12:27;;;;;;;2.75;1.20;;;;;;;;;;5009595;28;20060;-87
2023/10/11 23:15:06;;;;;;;5.28;1.42;;;;;;;;;;4993126;28;20411;-88
2023/10/11 23:17:36;;;;;;;3.47;1.38;;;;;;;;;;4993922;28;20050;-87
2023/10/11 23:20:17;;;;;;;3.00;1.00;;;;;;;;;;5010751;28;20042;-86
2023/10/11 23:22:50;;;;;;;2.50;1.40;;;;;;;;;;5010000;28;20412;-87
2023/10/11 23:25:26;;;;;;;4.57;1.20;;;;;;;;;;5010003;28;20053;-86
2023/10/11 23:27:56;;;;;;;2.38;1.45;;;;;;;;;;5010584;28;20400;-85
2023/10/11 23:30:29;;;;;;;2.40;1.30;;;;;;;;;;5014686;28;20057;-87
2023/10/11 23:33:15;;;;;;;3.67;1.30;;;;;;;;;;5013682;28;20057;-87
2023/10/11 23:35:50;;;;;;;2.67;1.50;;;;;;;;;;4998564;28;20053;-86
2023/10/11 23:38:26;;;;;;;4.53;1.40;;;;;;;;;;4998444;28;20061;-84
2023/10/11 23:41:19;;;;;;;2.45;1.20;;;;;;;;;;5033950;28;20041;-85
2023/10/11 23:44:16;;;;;;;2.92;0.88;;;;;;;;;;5015337;28;20069;-85
2023/10/11 23:46:58;;;;;;;2.70;1.40;;;;;;;;;;4999644;28;20398;-86
2023/10/11 23:49:30;;;;;;;3.08;1.15;;;;;;;;;;5016220;28;20049;-84
2023/10/11 23:52:04;;;;;;;3.47;1.10;;;;;;;;;;5014742;28;20053;-86
2023/10/11 23:54:40;;;;;;;2.95;1.08;;;;;;;;;;5032979;28;20046;-85
2023/10/11 23:57:23;;;;;;;2.92;0.90;;;;;;;;;;5032322;28;20050;-86
2023/10/11 23:59:58;;;;;;;4.00;1.13;;;;;;;;;;5012742;28;20053;-87
